Time;durP1;ratioP1;P1;durP2;ratioP2;P2;SDS_P1;SDS_P2;PMS_P1;PMS_P2;Temp;Humidity;BMP_temperature;BMP_pressure;BME280_temperature;BME280_humidity;BME280_pressure;Samples;Min_cycle;Max_cycle;Signal;HPM_P1;HPM_P2
2022/11/25 00:05:07;;;;;;;2.20;0.80;;;;;;;18.65;44.11;100799.78;16130845;19;129801;-41
2022/11/25 00:10:29;;;;;;;4.50;0.80;;;;;;;18.64;44.01;100798.13;16129974;19;130160;-39
2022/11/25 00:15:51;;;;;;;2.80;0.70;;;;;;;18.62;43.69;100791.97;16129993;19;129595;-44
2022/11/25 00:21:17;;;;;;;1.05;0.52;;;;;;;18.59;43.69;100782.25;16128919;19;129369;-39
2022/11/25 00:26:39;;;;;;;2.67;0.77;;;;;;;18.57;44.02;100775.28;16130740;19;129109;-41
2022/11/25 00:32:00;;;;;;;2.85;0.52;;;;;;;18.56;44.17;100776.38;16129390;19;129684;-39
2022/11/25 00:37:22;;;;;;;3.17;0.70;;;;;;;18.54;43.92;100784.06;16126702;19;130926;-41
2022/11/25 00:48:24;;;;;;;2.90;0.73;;;;;;;18.52;43.68;100797.34;16126785;19;130473;-39
2022/11/25 00:53:46;;;;;;;4.28;0.70;;;;;;;18.52;43.98;100802.88;16127338;19;129306;-42
2022/11/25 00:59:08;;;;;;;2.42;0.50;;;;;;;18.50;43.74;100829.97;16126359;19;130939;-40
2022/11/25 01:04:30;;;;;;;3.58;0.60;;;;;;;18.49;43.67;100848.53;16127164;19;129502;-39
2022/11/25 01:09:51;;;;;;;2.13;0.70;;;;;;;18.49;43.79;100850.47;16122921;19;129386;-39
2022/11/25 01:15:13;;;;;;;2.17;0.80;;;;;;;18.47;43.92;100856.25;16125418;19;129937;-42
2022/11/25 01:20:35;;;;;;;1.30;0.55;;;;;;;18.46;43.65;100849.84;16124993;19;130495;-42
2022/11/25 01:26:00;;;;;;;1.85;0.80;;;;;;;18.46;43.56;100871.19;16125530;19;129238;-43
2022/11/25 01:31:24;;;;;;;3.35;0.80;;;;;;;18.43;43.58;100883.63;16124534;19;133460;-44
2022/11/25 01:36:46;;;;;;;2.50;0.80;;;;;;;18.43;44.06;100886.38;16126800;19;129163;-40
2022/11/25 01:42:08;;;;;;;1.35;0.50;;;;;;;18.41;43.87;100901.53;16123996;19;129517;-40
2022/11/25 01:47:30;;;;;;;1.35;0.50;;;;;;;18.41;43.64;100913.47;16124692;19;129626;-43
2022/11/25 01:52:54;;;;;;;1.27;0.52;;;;;;;18.41;43.95;100919.03;16119893;19;130675;-39
2022/11/25 01:58:32;;;;;;;1.48;0.40;;;;;;;18.42;43.72;100906.00;16122306;19;129862;-39
2022/11/25 02:03:57;;;;;;;1.35;0.60;;;;;;;18.38;43.85;100897.31;16121955;19;129506;-40
2022/11/25 02:09:20;;;;;;;1.45;0.40;;;;;;;18.36;43.94;100905.03;16120693;19;129677;-41
2022/11/25 02:14:44;;;;;;;2.35;0.80;;;;;;;18.37;43.75;100875.41;16123569;19;134238;-40
2022/11/25 02:20:09;;;;;;;2.65;0.80;;;;;;;18.35;43.57;100798.09;16122416;19;130276;-38
2022/11/25 02:25:34;;;;;;;2.10;0.50;;;;;;;18.36;43.91;100840.50;16118413;19;128951;-47
2022/11/25 02:30:56;;;;;;;1.47;0.33;;;;;;;18.33;43.65;100839.06;16122694;19;130669;-45
2022/11/25 02:36:21;;;;;;;1.45;0.50;;;;;;;18.33;43.95;100830.75;16121523;19;129501;-46
2022/11/25 02:41:48;;;;;;;2.00;0.35;;;;;;;18.32;43.81;100840.16;16119527;19;129725;-47
2022/11/25 02:47:10;;;;;;;1.30;0.40;;;;;;;18.30;43.80;100785.00;16116398;19;131397;-46
2022/11/25 02:52:31;;;;;;;1.45;0.43;;;;;;;18.31;43.51;100796.94;16116288;19;129517;-44
2022/11/25 02:57:53;;;;;;;0.70;0.25;;;;;;;18.28;43.58;100872.19;16118078;19;130381;-39
2022/11/25 03:03:15;;;;;;;1.63;0.60;;;;;;;18.29;43.95;100893.25;16122400;19;129654;-41
2022/11/25 03:08:37;;;;;;;0.73;0.30;;;;;;;18.27;43.88;100901.81;16134083;19;135226;-39
2022/11/25 03:13:59;;;;;;;1.17;0.47;;;;;;;18.27;43.78;100912.03;16132262;19;130731;-39
2022/11/25 03:19:20;;;;;;;0.93;0.40;;;;;;;18.25;43.56;100897.59;16131327;19;129508;-40
2022/11/25 03:24:42;;;;;;;1.65;0.47;;;;;;;18.24;43.96;100930.00;16131779;19;129319;-40
2022/11/25 03:30:07;;;;;;;1.00;0.50;;;;;;;18.24;43.70;100956.81;16131512;19;129508;-39
2022/11/25 03:35:28;;;;;;;1.42;0.30;;;;;;;18.24;43.69;100937.44;16131201;19;129538;-39
2022/11/25 03:40:50;;;;;;;1.52;0.40;;;;;;;18.22;43.99;100942.38;16131638;19;129372;-40
2022/11/25 03:46:12;;;;;;;1.05;0.30;;;;;;;18.22;43.96;100947.91;16127889;19;129360;-40
2022/11/25 03:51:34;;;;;;;1.60;0.50;;;;;;;18.20;43.57;100947.34;16130008;19;129221;-41
2022/11/25 03:56:56;;;;;;;0.77;0.30;;;;;;;18.20;43.99;100944.56;16131147;19;130884;-39
2022/11/25 04:02:17;;;;;;;0.60;0.30;;;;;;;18.19;43.98;100954.78;16130786;19;129854;-40
2022/11/25 04:07:39;;;;;;;1.55;0.43;;;;;;;18.19;43.57;100948.41;16130968;19;129940;-40
2022/11/25 04:13:01;;;;;;;0.85;0.40;;;;;;;18.18;43.93;100958.63;16128541;19;129744;-39
2022/11/25 04:18:23;;;;;;;0.85;0.25;;;;;;;18.17;43.81;100972.75;16127964;19;129915;-40
2022/11/25 04:23:44;;;;;;;1.05;0.30;;;;;;;18.18;43.62;100968.88;16128453;19;129392;-40
2022/11/25 04:29:06;;;;;;;0.98;0.35;;;;;;;18.17;43.96;100978.28;16128465;19;129192;-40
2022/11/25 04:34:28;;;;;;;0.63;0.38;;;;;;;18.14;43.92;100985.97;16125630;19;130522;-40
2022/11/25 04:39:49;;;;;;;1.83;0.40;;;;;;;18.14;43.68;100997.06;16126519;19;128876;-40
2022/11/25 04:45:14;;;;;;;0.57;0.30;;;;;;;18.14;43.90;101002.59;16127504;19;129328;-41
2022/11/25 04:50:44;;;;;;;1.35;0.40;;;;;;;18.13;43.67;101002.84;16129992;19;129190;-39
2022/11/25 04:56:06;;;;;;;1.73;0.30;;;;;;;18.13;43.92;101005.59;16127854;19;130297;-40
2022/11/25 05:01:28;;;;;;;0.52;0.32;;;;;;;18.11;43.81;101008.59;16125619;19;129277;-40
2022/11/25 05:06:50;;;;;;;0.45;0.20;;;;;;;18.11;43.92;101018.84;16125688;19;129725;-39
2022/11/25 05:12:18;;;;;;;0.35;0.20;;;;;;;18.10;43.95;101020.75;16126263;19;129790;-39
2022/11/25 05:17:40;;;;;;;0.68;0.28;;;;;;;18.10;43.86;101011.63;16124961;19;130785;-39
2022/11/25 05:23:01;;;;;;;0.65;0.20;;;;;;;18.09;43.80;101010.75;16125757;19;129711;-40
2022/11/25 05:28:23;;;;;;;0.30;0.20;;;;;;;18.09;43.62;101026.53;16121617;19;129733;-39
2022/11/25 05:33:45;;;;;;;0.40;0.22;;;;;;;18.07;43.83;101035.09;16123861;19;130309;-39
2022/11/25 05:39:06;;;;;;;1.23;0.35;;;;;;;18.06;43.50;101044.47;16124571;19;129579;-41
2022/11/25 05:44:28;;;;;;;1.00;0.20;;;;;;;18.06;43.84;101047.25;16124250;19;129468;-39
2022/11/25 05:49:50;;;;;;;0.70;0.20;;;;;;;18.05;43.51;101056.63;16123793;19;129101;-39
2022/11/25 05:55:11;;;;;;;1.17;0.38;;;;;;;18.04;43.52;101048.56;16124033;19;129856;-39
2022/11/25 06:00:34;;;;;;;0.80;0.20;;;;;;;18.04;43.82;101068.78;16123071;19;129429;-41
2022/11/25 06:05:56;;;;;;;0.30;0.13;;;;;;;18.06;43.62;101093.47;16122013;19;129396;-39
2022/11/25 06:11:18;;;;;;;0.35;0.10;;;;;;;18.31;43.43;101096.84;16121189;19;129533;-41
2022/11/25 06:16:40;;;;;;;0.20;0.10;;;;;;;18.76;43.28;101098.19;16120405;19;129078;-39
2022/11/25 06:22:02;;;;;;;0.40;0.20;;;;;;;19.19;42.92;101100.78;16121785;19;129900;-39
2022/11/25 06:27:24;;;;;;;0.90;0.32;;;;;;;19.48;42.44;101103.56;16118915;19;130749;-40
2022/11/25 06:32:46;;;;;;;0.13;0.10;;;;;;;19.63;42.22;101109.44;16120369;19;129719;-39
2022/11/25 06:38:08;;;;;;;0.20;0.10;;;;;;;19.67;41.75;101112.53;16117856;19;129624;-40
2022/11/25 06:43:31;;;;;;;0.55;0.20;;;;;;;19.64;41.70;101119.44;16117812;19;129408;-40
2022/11/25 06:48:53;;;;;;;1.25;0.25;;;;;;;19.57;42.13;101129.81;16119860;19;129774;-40
2022/11/25 06:54:15;;;;;;;0.25;0.15;;;;;;;19.48;41.99;101132.19;16118118;19;129800;-40
2022/11/25 06:59:37;;;;;;;0.77;0.20;;;;;;;19.39;42.02;101139.19;16117182;19;129897;-40
2022/11/25 07:04:58;;;;;;;0.65;0.13;;;;;;;19.31;42.17;101142.34;16119736;19;130077;-41
2022/11/25 07:10:20;;;;;;;1.88;0.10;;;;;;;19.22;42.41;101167.72;16118683;19;130697;-40
2022/11/25 07:15:42;;;;;;;0.65;0.10;;;;;;;19.14;42.50;101170.81;16118097;19;130667;-40
2022/11/25 07:21:13;;;;;;;0.47;0.10;;;;;;;19.07;42.74;101193.16;16117332;19;129383;-38
2022/11/25 07:26:37;;;;;;;0.47;0.22;;;;;;;18.98;42.68;101197.38;16118079;19;129529;-39
2022/11/25 07:31:58;;;;;;;0.50;0.17;;;;;;;19.05;42.43;101216.66;16119451;19;130676;-39
2022/11/25 07:37:26;;;;;;;0.93;0.20;;;;;;;19.32;42.23;101217.00;16116204;19;129408;-39
2022/11/25 07:42:48;;;;;;;1.20;0.28;;;;;;;19.62;41.64;101227.09;16118927;19;130436;-39
2022/11/25 07:48:09;;;;;;;7.25;0.55;;;;;;;19.69;41.48;101244.44;16119858;19;129676;-40
2022/11/25 07:53:31;;;;;;;0.50;0.20;;;;;;;19.56;41.52;101243.88;16129903;19;130422;-40
2022/11/25 07:58:54;;;;;;;3.33;0.50;;;;;;;19.34;41.59;101258.38;16131144;19;129660;-38
2022/11/25 08:04:16;;;;;;;3.38;0.40;;;;;;;19.19;41.92;101261.63;16129449;19;129459;-38
2022/11/25 08:09:41;;;;;;;1.73;0.30;;;;;;;19.09;41.96;101281.66;16133466;19;130754;-40
2022/11/25 08:15:03;;;;;;;1.58;0.40;;;;;;;19.03;42.07;101283.44;16132437;19;129730;-39
2022/11/25 08:20:24;;;;;;;4.78;0.30;;;;;;;19.05;42.49;101291.53;16128116;19;129647;-39
2022/11/25 08:25:46;;;;;;;4.60;0.40;;;;;;;19.10;42.27;101290.78;16130610;19;129804;-39
2022/11/25 08:31:20;;;;;;;1.35;0.35;;;;;;;19.20;42.00;101293.84;16128650;19;129442;-39
2022/11/25 08:36:42;;;;;;;0.60;0.30;;;;;;;19.34;42.20;101298.06;16129093;19;129462;-39
2022/11/25 08:42:09;;;;;;;1.63;0.40;;;;;;;19.50;41.96;101295.63;16126041;19;129362;-40
2022/11/25 08:47:30;;;;;;;1.20;0.38;;;;;;;19.64;41.41;101296.22;16125437;19;129321;-39
2022/11/25 08:52:52;;;;;;;0.70;0.30;;;;;;;19.72;41.65;101308.88;16125406;19;129338;-39
2022/11/25 08:58:14;;;;;;;9.52;2.50;;;;;;;19.55;39.41;101311.56;16128204;19;131287;-42
2022/11/25 09:03:39;;;;;;;10.02;2.38;;;;;;;19.18;38.81;101313.47;16126210;19;129648;-40
2022/11/25 09:09:01;;;;;;;13.03;2.80;;;;;;;18.92;38.88;101315.63;16126664;19;130316;-40
2022/11/25 09:14:23;;;;;;;16.35;3.55;;;;;;;18.76;38.80;101319.09;16124570;19;129552;-41
2022/11/25 09:19:45;;;;;;;12.07;2.90;;;;;;;18.71;38.43;101318.97;16126115;19;129431;-40
2022/11/25 09:25:07;;;;;;;9.55;2.40;;;;;;;18.76;38.43;101322.72;16122895;19;129678;-41
2022/11/25 09:30:29;;;;;;;13.45;2.80;;;;;;;18.92;38.37;101339.75;16124034;19;129863;-40
2022/11/25 09:35:50;;;;;;;18.30;3.22;;;;;;;19.00;38.37;101353.25;16122669;19;129398;-39
2022/11/25 09:47:50;;;;;;;10.80;2.53;;;;;;;19.15;37.86;101369.41;16118543;19;131040;-39
2022/11/25 09:53:40;;;;;;;8.55;2.33;;;;;;;19.19;38.14;101386.44;16117684;19;129378;-39
2022/11/25 09:59:25;;;;;;;9.30;2.70;;;;;;;19.18;38.07;101393.06;16116569;19;135019;-40
2022/11/25 10:05:00;;;;;;;12.82;2.60;;;;;;;19.15;38.30;101397.16;16115668;19;129926;-39
2022/11/25 10:10:27;;;;;;;11.23;2.60;;;;;;;19.13;38.88;101407.66;16109323;19;130161;-40
2022/11/25 10:15:51;;;;;;;8.18;2.03;;;;;;;19.10;38.76;101421.13;16111931;19;129666;-40
2022/11/25 10:21:12;;;;;;;11.13;2.60;;;;;;;19.07;38.94;101415.00;16115845;19;130082;-39
2022/11/25 10:26:39;;;;;;;10.18;1.85;;;;;;;19.05;39.09;101422.72;16124092;19;130213;-39
2022/11/25 10:32:21;;;;;;;8.95;2.35;;;;;;;19.05;39.70;101425.50;16120742;19;129261;-40
2022/11/25 10:37:44;;;;;;;11.75;2.47;;;;;;;19.00;39.39;101430.88;16121755;19;129386;-40
2022/11/25 10:43:13;;;;;;;15.93;2.00;;;;;;;19.01;39.54;101431.75;16122743;19;129978;-41
2022/11/25 10:48:40;;;;;;;11.82;1.90;;;;;;;19.06;40.09;101457.69;16119399;19;130546;-40
2022/11/25 10:54:11;;;;;;;14.10;1.70;;;;;;;19.04;40.12;101451.53;16119517;19;129532;-39
2022/11/25 10:59:39;;;;;;;9.85;1.88;;;;;;;19.04;39.76;101462.63;16122131;19;129731;-39
2022/11/25 11:05:06;;;;;;;7.38;1.67;;;;;;;19.11;40.04;101467.19;16118919;19;130757;-39
2022/11/25 11:10:28;;;;;;;6.95;1.25;;;;;;;19.24;40.13;101475.34;16116364;19;129812;-39
2022/11/25 11:15:51;;;;;;;6.93;1.60;;;;;;;19.37;39.61;101486.25;16117560;19;129449;-42
2022/11/25 11:21:33;;;;;;;8.95;1.63;;;;;;;19.49;39.83;101496.53;16117276;19;129881;-44
2022/11/25 11:27:15;;;;;;;4.78;1.13;;;;;;;19.53;39.43;101508.84;16132586;19;129510;-41
2022/11/25 11:32:41;;;;;;;8.43;1.58;;;;;;;19.53;39.54;101517.16;16131496;19;130211;-39
2022/11/25 11:38:36;;;;;;;8.43;1.00;;;;;;;19.51;39.86;101517.38;16133430;19;129793;-41
2022/11/25 11:44:53;;;;;;;9.23;1.38;;;;;;;19.44;39.97;101529.72;16132278;19;129793;-41
2022/11/25 11:50:25;;;;;;;6.57;1.50;;;;;;;19.36;40.25;101528.94;16124378;19;129853;-41
2022/11/25 11:55:51;;;;;;;10.55;1.60;;;;;;;19.30;40.71;101538.22;16125841;19;129612;-40
2022/11/25 12:01:58;;;;;;;11.20;1.90;;;;;;;19.25;40.72;101543.63;16116310;19;129305;-41
2022/11/25 12:07:31;;;;;;;8.95;1.63;;;;;;;19.20;40.83;101554.56;16122147;19;130048;-41
2022/11/25 12:13:22;;;;;;;21.05;2.25;;;;;;;19.11;41.19;101562.38;16115239;19;130834;-40
2022/11/25 12:18:55;;;;;;;13.02;2.08;;;;;;;18.99;40.64;101561.47;16110868;19;130145;-42
2022/11/25 12:24:54;;;;;;;11.55;2.05;;;;;;;18.93;40.71;101568.78;16117061;19;129876;-39
2022/11/25 12:30:21;;;;;;;9.85;2.08;;;;;;;18.87;40.80;101566.91;16125022;19;129623;-41
2022/11/25 12:36:25;;;;;;;9.63;2.13;;;;;;;18.83;40.62;101580.41;16128953;19;130893;-40
2022/11/25 12:42:03;;;;;;;8.82;1.52;;;;;;;18.84;40.94;101587.66;16122139;19;130035;-40
2022/11/25 12:47:25;;;;;;;10.60;1.60;;;;;;;18.82;40.69;101594.50;16121029;19;129528;-41
2022/11/25 12:53:02;;;;;;;6.88;1.60;;;;;;;18.79;40.84;101603.28;16120670;19;129785;-42
2022/11/25 12:58:26;;;;;;;;;;;;;;;18.73;40.64;101608.66;16120567;19;131111;-39
2022/11/25 13:04:25;;;;;;;2.90;0.98;;;;;;;18.85;40.83;101616.22;16119154;19;129271;-41
2022/11/25 13:09:59;;;;;;;7.70;1.33;;;;;;;19.04;41.03;101623.47;16118859;19;130785;-43
2022/11/25 13:15:26;;;;;;;5.10;1.35;;;;;;;19.29;40.35;101627.22;16125263;19;129954;-44
2022/11/25 13:20:50;;;;;;;4.70;1.00;;;;;;;19.55;40.41;101639.91;16127938;19;128917;-42
2022/11/25 13:26:27;;;;;;;6.30;1.15;;;;;;;19.82;40.14;101639.47;16127091;19;130588;-41
2022/11/25 13:32:04;;;;;;;4.05;1.10;;;;;;;20.02;39.87;101652.25;16125470;19;129182;-43
2022/11/25 13:37:40;;;;;;;4.18;0.93;;;;;;;20.13;39.44;101648.66;16124923;19;129208;-42
2022/11/25 13:43:02;;;;;;;2.88;0.82;;;;;;;20.14;39.54;101655.91;16129112;19;129801;-47
2022/11/25 13:48:30;;;;;;;2.95;1.00;;;;;;;20.14;39.55;101661.47;16122431;19;129464;-43
2022/11/25 13:53:59;;;;;;;4.57;1.20;;;;;;;20.09;39.32;101656.63;16128392;19;129857;-40
2022/11/25 13:59:47;;;;;;;3.05;1.00;;;;;;;20.03;39.67;101677.00;16127584;19;130082;-41
2022/11/25 14:05:30;;;;;;;3.05;0.98;;;;;;;19.92;40.00;101670.31;16125957;19;129697;-39
2022/11/25 14:11:04;;;;;;;2.85;1.10;;;;;;;19.84;39.77;101690.94;16125805;19;130166;-41
2022/11/25 14:16:44;;;;;;;3.50;1.00;;;;;;;19.74;40.35;101696.22;16124992;19;130427;-42
2022/11/25 14:22:21;;;;;;;2.47;0.90;;;;;;;19.64;40.08;101707.88;16122803;19;129615;-41
2022/11/25 14:27:49;;;;;;;3.13;0.82;;;;;;;19.55;40.25;101717.63;16123275;19;129501;-40
2022/11/25 14:33:14;;;;;;;3.47;0.88;;;;;;;19.47;40.77;101729.00;16120318;19;129425;-41
2022/11/25 14:38:44;;;;;;;1.97;1.17;;;;;;;19.40;40.73;101739.34;16118976;19;129275;-43
2022/11/25 14:44:20;;;;;;;1.92;0.80;;;;;;;19.34;40.95;101750.28;16122770;19;129961;-40
2022/11/25 14:49:52;;;;;;;5.18;1.27;;;;;;;19.26;40.96;101761.69;16122310;19;134051;-42
2022/11/25 14:55:35;;;;;;;14.63;1.45;;;;;;;19.20;40.74;101776.47;16121046;19;129488;-41
2022/11/25 15:00:57;;;;;;;5.35;1.10;;;;;;;19.15;40.87;101781.84;16118249;19;133974;-43
2022/11/25 15:06:19;;;;;;;9.18;1.63;;;;;;;19.10;41.37;101790.00;16118664;19;129602;-40
2022/11/25 15:11:41;;;;;;;14.50;1.73;;;;;;;19.07;41.02;101794.09;16117267;19;129650;-40
2022/11/25 15:17:26;;;;;;;13.20;1.80;;;;;;;19.10;40.74;101804.72;16118993;19;129703;-40
2022/11/25 15:22:50;;;;;;;11.90;1.90;;;;;;;19.19;41.20;101811.66;16115327;19;129775;-44
2022/11/25 15:28:15;;;;;;;8.27;1.98;;;;;;;19.35;40.74;101821.34;16118127;19;130617;-42
2022/11/25 15:33:38;;;;;;;9.27;2.13;;;;;;;19.47;40.56;101820.59;16115999;19;129670;-53
2022/11/25 15:39:32;;;;;;;11.70;2.17;;;;;;;19.60;40.16;101834.31;16115267;19;131269;-50
2022/11/25 15:44:58;;;;;;;10.20;1.98;;;;;;;19.72;40.39;101852.97;16112836;19;129563;-52
2022/11/25 15:50:31;;;;;;;13.45;1.92;;;;;;;19.75;40.26;101853.38;16116491;19;129419;-51
2022/11/25 15:55:59;;;;;;;11.48;1.60;;;;;;;19.76;40.10;101870.88;16117778;19;129571;-50
2022/11/25 16:01:23;;;;;;;8.05;1.80;;;;;;;19.72;40.52;101886.28;16117609;19;129515;-52
2022/11/25 16:06:53;;;;;;;12.57;1.90;;;;;;;19.69;40.42;101893.16;16116424;19;129972;-49
2022/11/25 16:12:16;;;;;;;10.15;1.63;;;;;;;19.64;41.00;101907.75;16125803;19;129514;-54
2022/11/25 16:17:38;;;;;;;8.40;1.73;;;;;;;19.59;41.01;101904.78;16131450;19;129492;-52
2022/11/25 16:23:05;;;;;;;9.63;1.77;;;;;;;19.51;41.19;101913.41;16129126;19;129412;-50
2022/11/25 16:28:27;;;;;;;12.13;1.90;;;;;;;19.44;41.33;101929.31;16132218;19;129792;-50
2022/11/25 16:34:08;;;;;;;11.25;1.73;;;;;;;19.37;41.21;101941.28;16130089;19;129687;-49
2022/11/25 16:39:29;;;;;;;12.60;1.90;;;;;;;19.31;41.12;101949.66;16130455;19;130829;-51
2022/11/25 16:44:51;;;;;;;7.85;1.70;;;;;;;19.27;41.60;101965.94;16132962;19;129186;-54
2022/11/25 16:50:15;;;;;;;10.75;1.50;;;;;;;19.21;41.32;101973.22;16124684;19;129565;-46
2022/11/25 16:55:38;;;;;;;13.95;1.90;;;;;;;19.18;41.49;101992.22;16126085;19;129076;-53
2022/11/25 17:01:01;;;;;;;6.85;1.75;;;;;;;19.15;41.69;101987.94;16129642;19;129504;-48
2022/11/25 17:06:25;;;;;;;9.13;1.40;;;;;;;19.11;41.83;102002.50;16128021;19;131802;-52
2022/11/25 17:11:53;;;;;;;7.63;1.58;;;;;;;19.07;41.47;102016.81;16127416;19;129275;-53
2022/11/25 17:17:21;;;;;;;5.63;1.40;;;;;;;19.06;41.88;102017.03;16125022;19;129891;-54
2022/11/25 17:22:45;;;;;;;9.48;1.73;;;;;;;19.00;41.71;102032.63;16126641;19;129509;-52
2022/11/25 17:28:14;;;;;;;8.57;1.60;;;;;;;18.97;41.72;102044.16;16130241;19;129631;-51
2022/11/25 17:33:36;;;;;;;18.55;2.40;;;;;;;18.93;41.84;102051.25;16127933;19;129566;-45
2022/11/25 17:38:58;;;;;;;15.02;1.65;;;;;;;18.98;41.60;102051.41;16128215;19;129952;-41
2022/11/25 17:44:26;;;;;;;9.80;1.83;;;;;;;19.13;41.82;102066.91;16127488;19;129695;-52
2022/11/25 17:49:48;;;;;;;10.45;2.03;;;;;;;19.34;41.36;102080.47;16127937;19;129401;-50
2022/11/25 17:55:10;;;;;;;11.52;2.10;;;;;;;19.50;41.22;102089.34;16125631;19;130403;-53
2022/11/25 18:00:33;;;;;;;34.88;13.85;;;;;;;19.63;41.71;102093.97;16125426;19;130652;-56
2022/11/25 18:05:55;;;;;;;64.97;11.77;;;;;;;19.72;41.57;102108.41;16122583;19;129570;-47
2022/11/25 18:11:19;;;;;;;50.97;12.75;;;;;;;19.79;41.91;102126.72;16123480;19;130348;-52
2022/11/25 18:16:41;;;;;;;52.72;12.45;;;;;;;19.93;41.58;102132.16;16125096;19;129561;-52
2022/11/25 18:22:17;;;;;;;45.40;11.43;;;;;;;20.07;41.59;102144.03;16120428;19;129327;-59
2022/11/25 18:27:39;;;;;;;53.70;12.52;;;;;;;20.13;41.86;102148.72;16121458;19;129095;-43
2022/11/25 18:33:04;;;;;;;41.92;11.57;;;;;;;20.14;41.67;102162.38;16121659;19;129714;-49
2022/11/25 18:38:26;;;;;;;39.40;10.77;;;;;;;20.11;42.31;102162.84;16119196;19;129660;-46
2022/11/25 18:43:47;;;;;;;33.55;9.25;;;;;;;20.07;42.39;102171.81;16132208;19;130191;-48
2022/11/25 18:49:13;;;;;;;47.75;10.15;;;;;;;20.01;42.16;102169.97;16128845;19;130032;-41
2022/11/25 18:54:35;;;;;;;40.97;9.32;;;;;;;19.91;42.01;102178.75;16131570;19;129791;-43
2022/11/25 18:59:57;;;;;;;34.53;8.32;;;;;;;19.82;42.18;102194.84;16133824;19;129352;-45
2022/11/25 19:05:39;;;;;;;32.72;8.50;;;;;;;19.73;42.11;102193.41;16130832;19;130846;-46
2022/11/25 19:11:00;;;;;;;27.20;8.18;;;;;;;19.63;42.01;102191.97;16133078;19;129498;-41
2022/11/25 19:16:23;;;;;;;33.40;8.45;;;;;;;19.57;42.48;102201.16;16131618;19;135392;-46
2022/11/25 19:21:44;;;;;;;32.97;8.38;;;;;;;19.52;42.74;102210.16;16127506;19;129069;-40
2022/11/25 19:27:16;;;;;;;32.88;7.85;;;;;;;19.52;42.94;102224.03;16116205;19;129959;-40
2022/11/25 19:32:38;;;;;;;32.03;8.10;;;;;;;19.53;42.93;102233.25;16113893;19;129520;-43
2022/11/25 19:38:00;;;;;;;28.48;7.35;;;;;;;19.61;43.54;102235.75;16112911;19;129490;-39
2022/11/25 19:43:25;;;;;;;52.72;8.18;;;;;;;19.77;44.22;102248.25;16115283;19;129639;-40
2022/11/25 19:48:47;;;;;;;36.38;6.43;;;;;;;20.10;44.27;102249.16;16117708;19;130680;-40
2022/11/25 19:54:14;;;;;;;40.95;7.57;;;;;;;20.62;44.22;102257.31;16124127;19;130010;-38
2022/11/25 19:59:36;;;;;;;39.42;6.47;;;;;;;21.14;43.70;102254.28;16128752;19;130669;-40
2022/11/25 20:04:58;;;;;;;34.13;6.90;;;;;;;21.65;43.63;102270.84;16128244;19;129421;-39
2022/11/25 20:10:26;;;;;;;29.80;6.57;;;;;;;22.02;44.06;102276.31;16124335;19;131777;-39
2022/11/25 20:15:48;;;;;;;45.97;7.18;;;;;;;22.10;43.50;102280.69;16129255;19;130075;-41
2022/11/25 20:21:19;;;;;;;51.78;8.80;;;;;;;22.11;42.99;102283.25;16124210;19;129477;-40
2022/11/25 20:26:47;;;;;;;50.03;7.25;;;;;;;22.03;43.69;102297.50;16126242;19;129558;-42
2022/11/25 20:32:21;;;;;;;43.67;9.02;;;;;;;21.92;43.83;102306.66;16124281;19;129428;-41
2022/11/25 20:37:50;;;;;;;48.05;7.55;;;;;;;21.78;43.95;102309.66;16125482;19;129602;-43
2022/11/25 20:43:22;;;;;;;38.25;7.18;;;;;;;21.67;44.39;102318.78;16123468;19;130490;-40
2022/11/25 20:48:44;;;;;;;31.70;7.07;;;;;;;21.51;44.67;102331.38;16125508;19;129269;-40
2022/11/25 20:54:10;;;;;;;34.22;7.18;;;;;;;21.39;45.30;102336.88;16124144;19;129620;-48
2022/11/25 20:59:32;;;;;;;41.10;6.97;;;;;;;21.26;45.73;102345.34;16116715;19;129748;-40
2022/11/25 21:04:54;;;;;;;25.45;6.43;;;;;;;21.13;45.94;102352.75;16123766;19;129768;-40
2022/11/25 21:10:27;;;;;;;29.48;6.38;;;;;;;21.03;46.50;102364.38;16119062;19;129593;-40
2022/11/25 21:15:53;;;;;;;28.73;5.70;;;;;;;20.90;46.86;102365.38;16123979;19;129888;-40
2022/11/25 21:21:28;;;;;;;23.13;4.60;;;;;;;20.81;47.17;102377.84;16122714;19;129656;-40
2022/11/25 21:26:51;;;;;;;17.87;4.30;;;;;;;20.70;47.69;102381.31;16116093;19;130183;-41
2022/11/25 21:32:24;;;;;;;18.15;3.95;;;;;;;20.63;48.11;102392.47;16115555;19;130520;-41
2022/11/25 21:37:46;;;;;;;25.90;4.78;;;;;;;20.53;47.99;102398.56;16123434;19;130164;-40
2022/11/25 21:43:20;;;;;;;28.60;4.50;;;;;;;20.47;47.68;102404.16;16120844;19;130353;-39
2022/11/25 21:48:42;;;;;;;38.30;5.22;;;;;;;20.36;48.13;102414.91;16124852;19;135295;-40
2022/11/25 21:54:04;;;;;;;27.77;4.90;;;;;;;20.28;48.17;102418.78;16121091;19;129736;-40
2022/11/25 21:59:28;;;;;;;22.00;4.22;;;;;;;20.21;48.09;102429.06;16120613;19;129640;-39
2022/11/25 22:04:51;;;;;;;22.30;4.15;;;;;;;20.13;47.63;102432.09;16118539;19;130277;-40
2022/11/25 22:10:15;;;;;;;17.13;4.13;;;;;;;20.07;47.50;102430.19;16113294;19;130471;-40
2022/11/25 22:15:36;;;;;;;22.27;4.82;;;;;;;20.01;47.99;102444.97;16115200;19;130068;-39
2022/11/25 22:20:58;;;;;;;19.73;4.55;;;;;;;19.94;47.71;102450.50;16114232;19;129300;-40
2022/11/25 22:26:31;;;;;;;17.02;3.95;;;;;;;19.88;48.13;102460.56;16115471;19;129497;-43
2022/11/25 22:31:52;;;;;;;14.98;3.42;;;;;;;19.81;48.08;102457.81;16117660;19;129080;-39
2022/11/25 22:37:17;;;;;;;13.38;3.60;;;;;;;19.77;48.57;102469.56;16115760;19;129938;-39
2022/11/25 22:42:41;;;;;;;11.15;2.92;;;;;;;19.71;48.43;102478.75;16119441;19;129499;-39
2022/11/25 22:48:04;;;;;;;13.10;2.83;;;;;;;19.66;49.13;102471.94;16119742;19;129535;-40
2022/11/25 22:53:27;;;;;;;11.48;2.60;;;;;;;19.61;48.66;102488.38;16119574;19;130477;-39
2022/11/25 22:58:48;;;;;;;11.27;2.78;;;;;;;19.58;48.45;102496.28;16118428;19;129514;-40
2022/11/25 23:04:18;;;;;;;10.75;2.85;;;;;;;19.54;48.76;102504.19;16115723;19;129726;-39
2022/11/25 23:09:40;;;;;;;7.85;2.92;;;;;;;19.49;48.66;102498.44;16116536;19;129382;-40
2022/11/25 23:15:02;;;;;;;8.85;2.78;;;;;;;19.45;49.26;102509.09;16118141;19;134215;-41
2022/11/25 23:20:36;;;;;;;9.95;2.25;;;;;;;19.44;49.55;102517.66;16121355;19;129712;-39
2022/11/25 23:25:58;;;;;;;7.82;2.00;;;;;;;19.38;49.57;102527.69;16132980;19;131645;-39
2022/11/25 23:31:20;;;;;;;9.30;2.30;;;;;;;19.35;49.53;102536.44;16132962;19;129169;-39
2022/11/25 23:36:45;;;;;;;7.35;2.00;;;;;;;19.31;49.46;102537.91;16132396;19;129912;-39
2022/11/25 23:42:17;;;;;;;6.17;1.80;;;;;;;19.29;49.81;102535.38;16130634;19;129500;-39
2022/11/25 23:47:41;;;;;;;8.07;1.85;;;;;;;19.24;49.26;102537.91;16132678;19;129920;-39
2022/11/25 23:53:06;;;;;;;9.38;2.10;;;;;;;19.22;49.54;102542.81;16131549;19;130483;-39
2022/11/25 23:58:27;;;;;;;4.30;1.67;;;;;;;19.18;49.93;102538.72;16130557;19;132016;-39
